Saturday, August 18, 2018, 1:52 PM EDT
Back to Local

KHEF, Manassas, Manassas Regional Airport/harry P. Davis Field

Location: Manassas, VA, United States Lat: 38.717
Local Time: 1:52 PM EDT (17:52 GMT) Lon: -77.517
Time Zone: US/Eastern Elev: 193 ft

Show me the last for .
Show Decoded

2018-08-18 12:56 METAR KHEF 181656Z 24007KT 200V270 10SM CLR 29/23 A2991 RMK AO2 SLP135 T02940228
                 PNO $ =
2018-08-18 11:56 METAR KHEF 181556Z 22006KT 10SM CLR 28/23 A2992 RMK AO2 SLP140 T02830228 PNO $ =
2018-08-18 10:56 METAR KHEF 181456Z 00000KT 10SM CLR 27/23 A2993 RMK AO2 SLP143 6//// T02670233
                 58005 PNO $ =
2018-08-18 09:56 METAR KHEF 181356Z 21004KT 10SM CLR 25/23 A2994 RMK AO2 SLP146 T02500233 PNO $ =
2018-08-18 08:56 METAR KHEF 181256Z 24003KT 10SM CLR 24/23 A2995 RMK AO2 SLP149 T02390228 PNO $ =
2018-08-18 07:56 METAR KHEF 181156Z 00000KT 10SM CLR 23/22 A2995 RMK AO2 SLP148 6//// 7////
                 T02280217 10228 20211 52004 PNO $ =
2018-08-18 06:56 METAR KHEF 181056Z 00000KT 9SM CLR 21/21 A2994 RMK AO2 SLP147 T02110211 PNO $ =
2018-08-18 05:56 METAR KHEF 180956Z 00000KT 10SM CLR 22/21 A2994 RMK AO2 SLP145 T02170211 PNO $ =
2018-08-18 04:56 METAR KHEF 180856Z 00000KT 10SM CLR 22/21 A2993 RMK AO2 SLP143 6//// T02170211
                 58008 PNO $ =
2018-08-18 03:56 METAR KHEF 180756Z 17003KT 10SM CLR 22/21 A2994 RMK AO2 SLP147 T02170211 PNO $ =
2018-08-18 02:56 METAR KHEF 180656Z 00000KT 10SM CLR 22/21 A2995 RMK AO2 LTG DSNT NE SLP149
                 T02220211 PNO $ =
2018-08-18 00:56 METAR KHEF 180456Z 35004KT 10SM FEW065 22/21 A2997 RMK AO2 SLP156 T02170211 PNO
                 $ =
2018-08-17 23:56 METAR KHEF 180356Z 20003KT 10SM CLR 22/21 A2997 RMK AO2 SLP155 T02220211
                 403330217 PNO $ =
2018-08-17 22:56 METAR KHEF 180256Z 00000KT 10SM CLR 22/22 A2997 RMK AO2 SLP156 6//// T02220217
                 50001 PNO $ =
2018-08-17 21:56 METAR KHEF 180156Z 22005KT 10SM CLR 23/22 A2998 RMK AO2 SLP161 T02330222 PNO $ =
2018-08-17 20:56 METAR KHEF 180056Z 17003KT 10SM CLR 23/22 A2997 RMK AO2 LTG DSNT SW SLP156
                 T02280217 PNO $ =
2018-08-17 19:56 METAR KHEF 172356Z 16004KT 10SM FEW055 23/22 A2997 RMK AO2 TSE26 SLP155 6////
                 T02330222 10333 20233 58002 PNO $ =
2018-08-17 19:32 METAR KHEF 172332Z 15006KT 7SM FEW055 SCT090 BKN110 24/22 A2998 RMK AO2 TSE26
                 PNO $ =
2018-08-17 18:56 METAR KHEF 172256Z VRB03KT 10SM VCTS CLR 26/21 A3000 RMK AO2 LTG DSNT NE AND W
                 TSE51B53 SLP166 T02610206 PNO $ =
2018-08-17 18:53 METAR KHEF 172253Z 22003KT 10SM VCTS CLR 26/20 A3000 RMK AO2 LTG DSNT NE AND W
                 TSE51B53 PNO $ =
2018-08-17 17:56 METAR KHEF 172156Z 31017G26KT 10SM VCTS SCT050 28/23 A3000 RMK AO2 PK WND
                 31026/2154 LTG DSNT W-N TSB52 SLP167 T02830228 PNO $ =
2018-08-17 16:56 METAR KHEF 172056Z 17005KT 10SM CLR 30/23 A2997 RMK AO2 LTG DSNT W SLP156 6////
                 T03000233 56016 PNO $ =
2018-08-17 15:56 METAR KHEF 171956Z 20007KT 10SM FEW045 31/23 A2997 RMK AO2 LTG DSNT NW SLP157
                 T03110233 PNO $ =
2018-08-17 14:56 METAR KHEF 171856Z 19010KT 10SM CLR 33/23 A3000 RMK AO2 SLP164 T03280233 PNO $ =

Support USWX by starting your Amazon purchase here.